Nissho Maru — JD2650 — position and weather

sailwx.info

Track history (hours):
 
Tides and Currents Weather Stations Pressure Air Temp Water Temp Dewpoint Dewpoint Depression Visibility Wind Speed Wind Dir Waves Ship Positions

Nissho Maru

Last reported at 2015-Jul-05 22:32 UTC. Time now 2015-Jul-05 23:17 UTC.
Position N 35°31' E 139°45'.

Length 75 m; draft 4 m.

Type: Cargo ship. MMSI: 431000572.

Date/timePositionNaut miles runAvg speedWind from/ knotsBaromVisibWave heightAir tempDewpointWater temp
2015-Jul-05 22:32N 35°31' E 139°45'0 0.0
2015-Jul-05 21:32N 35°31' E 139°45'0 0.0
2015-Jul-05 20:32N 35°31' E 139°45'0 0.0
2015-Jul-05 19:32N 35°31' E 139°45'0 0.0
2015-Jul-05 18:32N 35°31' E 139°45'0 0.0
2015-Jul-05 17:29N 35°31' E 139°45'0 0.0
2015-Jul-05 16:29N 35°31' E 139°45'0 0.0
2015-Jul-05 15:32N 35°31' E 139°45'0 0.0
2015-Jul-05 14:32N 35°31' E 139°45'0 0.0
2015-Jul-05 13:32N 35°31' E 139°45'0 0.0
2015-Jul-05 12:32N 35°31' E 139°45'0 0.0
2015-Jul-05 11:32N 35°31' E 139°45'0 0.0
2015-Jul-05 10:32N 35°31' E 139°45'0 0.0
2015-Jul-05 09:29N 35°31' E 139°45'0 0.0
2015-Jul-05 08:29N 35°31' E 139°45'0 0.0
2015-Jul-05 07:32N 35°31' E 139°45'0 0.0
2015-Jul-05 06:29N 35°31' E 139°45'0 0.0
2015-Jul-05 05:32N 35°31' E 139°45'0 0.0
2015-Jul-05 04:32N 35°31' E 139°45'0 0.0
2015-Jul-05 03:29N 35°31' E 139°45'0 0.0
2015-Jul-05 02:32N 35°31' E 139°45'0 0.0
2015-Jul-05 01:32N 35°31' E 139°45'0 0.0
2015-Jul-05 00:29N 35°31' E 139°45'0 0.0
2015-Jul-04 23:34N 35°31' E 139°45'4 3.9
2015-Jul-04 22:32N 35°30' E 139°50'0 0.0
2015-Jul-04 21:32N 35°30' E 139°50'0 0.0
2015-Jul-04 20:32N 35°30' E 139°50'0 0.0
2015-Jul-04 19:29N 35°30' E 139°50'0 0.0
2015-Jul-04 18:32N 35°30' E 139°50'0 0.0
2015-Jul-04 17:32N 35°30' E 139°50'0 0.0
2015-Jul-04 16:32N 35°30' E 139°50'0 0.1
2015-Jul-04 15:32N 35°30' E 139°50'0 0.1
2015-Jul-04 14:32N 35°30' E 139°50'0 0.0
2015-Jul-04 13:32N 35°30' E 139°50'0 0.0
2015-Jul-04 12:23N 35°30' E 139°50'0 0.0
2015-Jul-04 11:32N 35°30' E 139°50'0 0.0
2015-Jul-04 10:30N 35°30' E 139°50'7 7.0
2015-Jul-04 09:33N 35°29' E 139°58'2 1.5
2015-Jul-04 08:24N 35°28' E 139°60'0 0.0
2015-Jul-04 06:30N 35°28' E 139°60'0 0.0
2015-Jul-04 05:30N 35°28' E 139°60'0 0.0
2015-Jul-04 04:12N 35°28' E 139°60'0 0.0
2015-Jul-04 03:33N 35°28' E 139°60'0 0.0
2015-Jul-04 02:12N 35°28' E 139°60'0 0.0
2015-Jul-04 01:24N 35°28' E 139°60'5 6.2
2015-Jul-04 00:33N 35°29' E 139°53'1111.2
2015-Jul-03 23:33N 35°20' E 139°44'1110.6
2015-Jul-03 22:33N 35°10' E 139°46'1312.4
2015-Jul-03 21:31N 34°57' E 139°44'11 8.5
2015-Jul-03 20:12N 34°53' E 139°57'6 9.2
2015-Jul-03 19:33N 34°56' E 140°03'9 9.3
2015-Jul-03 18:33N 35°00' E 140°13'20 9.7
2015-Jul-03 16:32N 35°14' E 140°30'1110.6
2015-Jul-03 15:30N 35°23' E 140°38'1211.2
2015-Jul-03 14:28N 35°32' E 140°47'1010.8
2015-Jul-03 13:31N 35°40' E 140°54'  
2015-Jun-28 16:31N 35°37' E 140°52'1010.1
2015-Jun-28 15:33N 35°29' E 140°45'1210.3
2015-Jun-28 14:21N 35°19' E 140°35'2210.0
2015-Jun-28 12:12N 35°03' E 140°18'710.5
2015-Jun-28 11:33N 34°60' E 140°11'1310.8
2015-Jun-28 10:23N 34°53' E 139°58'910.5
2015-Jun-28 09:34N 34°52' E 139°47'1110.7
2015-Jun-28 08:33N 35°03' E 139°44'1211.7
2015-Jun-28 07:33N 35°14' E 139°46'1110.8
2015-Jun-28 06:33N 35°25' E 139°44'1211.9
2015-Jun-28 05:33N 35°32' E 139°56'7 6.1
2015-Jun-28 04:29N 35°34' E 140°03'0 0.1
2015-Jun-28 03:23N 35°34' E 140°03'0 0.0
2015-Jun-28 02:23N 35°34' E 140°03'0 0.0
2015-Jun-28 01:05N 35°34' E 140°03'0 0.1
2015-Jun-28 00:29N 35°34' E 140°03'0 0.1
2015-Jun-27 23:29N 35°34' E 140°03'0 0.0
2015-Jun-27 22:29N 35°34' E 140°03'0 0.0
2015-Jun-27 21:29N 35°34' E 140°03'0 0.0
2015-Jun-27 20:29N 35°34' E 140°03'0 0.0
2015-Jun-27 19:17N 35°34' E 140°03'0 0.0
2015-Jun-27 18:23N 35°34' E 140°03'0 0.0
2015-Jun-27 17:17N 35°34' E 140°03'0 0.0
2015-Jun-27 16:23N 35°34' E 140°03'0 0.1
2015-Jun-27 15:29N 35°34' E 140°03'0 0.0
2015-Jun-27 14:17N 35°34' E 140°03'0 0.0
2015-Jun-27 13:29N 35°34' E 140°03'0 0.1
2015-Jun-27 12:29N 35°34' E 140°03'0 0.0
2015-Jun-27 11:17N 35°34' E 140°03'0 0.0
2015-Jun-27 10:23N 35°34' E 140°03'0 0.0
2015-Jun-27 09:23N 35°34' E 140°03'0 0.1
2015-Jun-27 08:30N 35°34' E 140°03'2 2.1
2015-Jun-27 07:24N 35°36' E 140°05'0 0.0
2015-Jun-27 06:33N 35°36' E 140°05'0 0.0
2015-Jun-27 04:27N 35°36' E 140°05'0 0.0
2015-Jun-27 03:33N 35°36' E 140°05'0 0.0
2015-Jun-27 02:33N 35°36' E 140°05'0 0.1
2015-Jun-27 01:33N 35°36' E 140°05'0 0.1
2015-Jun-27 00:33N 35°36' E 140°05'0 0.0
2015-Jun-26 23:27N 35°36' E 140°05'0 0.0
2015-Jun-26 22:33N 35°36' E 140°05'0 0.0
2015-Jun-26 21:27N 35°36' E 140°05'0 0.0
2015-Jun-26 20:27N 35°36' E 140°05'0 0.0
2015-Jun-26 19:09N 35°36' E 140°05'0 0.0
2015-Jun-26 18:33N 35°36' E 140°05'0 0.0
2015-Jun-26 17:27N 35°36' E 140°05'0 0.0
2015-Jun-26 16:21N 35°36' E 140°05'0 0.0
2015-Jun-26 14:03N 35°36' E 140°05'0 0.0
2015-Jun-26 13:33N 35°36' E 140°05'0 0.0
2015-Jun-26 12:27N 35°36' E 140°05'0 0.0
2015-Jun-26 11:15N 35°36' E 140°05'0 0.0
2015-Jun-26 10:15N 35°36' E 140°05'0 0.0
2015-Jun-26 09:33N 35°36' E 140°05'0 0.0
2015-Jun-26 08:33N 35°36' E 140°05'0 0.0
2015-Jun-26 07:33N 35°36' E 140°05'0 0.0
2015-Jun-26 06:33N 35°36' E 140°05'0 0.0
2015-Jun-26 05:33N 35°36' E 140°05'0 0.0
2015-Jun-26 04:21N 35°36' E 140°05'0 0.0
2015-Jun-26 02:33N 35°36' E 140°05'0 0.0
2015-Jun-26 01:27N 35°36' E 140°05'0 0.0
2015-Jun-26 00:27N 35°36' E 140°05'0 0.0
2015-Jun-25 23:09N 35°36' E 140°05'0 0.6
2015-Jun-25 22:33N 35°36' E 140°05'  
Track history (hours):
 
Tides and Currents Weather Stations Pressure Air Temp Water Temp Dewpoint Dewpoint Depression Visibility Wind Speed Wind Dir Waves Ship Positions

Nissho Maru

Last reported at 2015-Jul-05 22:32 UTC. Time now 2015-Jul-05 23:17 UTC.
Position N 35°31' E 139°45'.

Length 75 m; draft 4 m.

Type: Cargo ship. MMSI: 431000572.

Date/timePositionNaut miles runAvg speedWind from/ knotsBaromVisibWave heightAir tempDewpointWater temp
2015-Jul-05 22:32N 35°31' E 139°45'0 0.0
2015-Jul-05 21:32N 35°31' E 139°45'0 0.0
2015-Jul-05 20:32N 35°31' E 139°45'0 0.0
2015-Jul-05 19:32N 35°31' E 139°45'0 0.0
2015-Jul-05 18:32N 35°31' E 139°45'0 0.0
2015-Jul-05 17:29N 35°31' E 139°45'0 0.0
2015-Jul-05 16:29N 35°31' E 139°45'0 0.0
2015-Jul-05 15:32N 35°31' E 139°45'0 0.0
2015-Jul-05 14:32N 35°31' E 139°45'0 0.0
2015-Jul-05 13:32N 35°31' E 139°45'0 0.0
2015-Jul-05 12:32N 35°31' E 139°45'0 0.0
2015-Jul-05 11:32N 35°31' E 139°45'0 0.0
2015-Jul-05 10:32N 35°31' E 139°45'0 0.0
2015-Jul-05 09:29N 35°31' E 139°45'0 0.0
2015-Jul-05 08:29N 35°31' E 139°45'0 0.0
2015-Jul-05 07:32N 35°31' E 139°45'0 0.0
2015-Jul-05 06:29N 35°31' E 139°45'0 0.0
2015-Jul-05 05:32N 35°31' E 139°45'0 0.0
2015-Jul-05 04:32N 35°31' E 139°45'0 0.0
2015-Jul-05 03:29N 35°31' E 139°45'0 0.0
2015-Jul-05 02:32N 35°31' E 139°45'0 0.0
2015-Jul-05 01:32N 35°31' E 139°45'0 0.0
2015-Jul-05 00:29N 35°31' E 139°45'0 0.0
2015-Jul-04 23:34N 35°31' E 139°45'4 3.9
2015-Jul-04 22:32N 35°30' E 139°50'0 0.0
2015-Jul-04 21:32N 35°30' E 139°50'0 0.0
2015-Jul-04 20:32N 35°30' E 139°50'0 0.0
2015-Jul-04 19:29N 35°30' E 139°50'0 0.0
2015-Jul-04 18:32N 35°30' E 139°50'0 0.0
2015-Jul-04 17:32N 35°30' E 139°50'0 0.0
2015-Jul-04 16:32N 35°30' E 139°50'0 0.1
2015-Jul-04 15:32N 35°30' E 139°50'0 0.1
2015-Jul-04 14:32N 35°30' E 139°50'0 0.0
2015-Jul-04 13:32N 35°30' E 139°50'0 0.0
2015-Jul-04 12:23N 35°30' E 139°50'0 0.0
2015-Jul-04 11:32N 35°30' E 139°50'0 0.0
2015-Jul-04 10:30N 35°30' E 139°50'7 7.0
2015-Jul-04 09:33N 35°29' E 139°58'2 1.5
2015-Jul-04 08:24N 35°28' E 139°60'0 0.0
2015-Jul-04 06:30N 35°28' E 139°60'0 0.0
2015-Jul-04 05:30N 35°28' E 139°60'0 0.0
2015-Jul-04 04:12N 35°28' E 139°60'0 0.0
2015-Jul-04 03:33N 35°28' E 139°60'0 0.0
2015-Jul-04 02:12N 35°28' E 139°60'0 0.0
2015-Jul-04 01:24N 35°28' E 139°60'5 6.2
2015-Jul-04 00:33N 35°29' E 139°53'1111.2
2015-Jul-03 23:33N 35°20' E 139°44'1110.6
2015-Jul-03 22:33N 35°10' E 139°46'1312.4
2015-Jul-03 21:31N 34°57' E 139°44'11 8.5
2015-Jul-03 20:12N 34°53' E 139°57'6 9.2
2015-Jul-03 19:33N 34°56' E 140°03'9 9.3
2015-Jul-03 18:33N 35°00' E 140°13'20 9.7
2015-Jul-03 16:32N 35°14' E 140°30'1110.6
2015-Jul-03 15:30N 35°23' E 140°38'1211.2
2015-Jul-03 14:28N 35°32' E 140°47'1010.8
2015-Jul-03 13:31N 35°40' E 140°54'  
2015-Jun-28 16:31N 35°37' E 140°52'1010.1
2015-Jun-28 15:33N 35°29' E 140°45'1210.3
2015-Jun-28 14:21N 35°19' E 140°35'2210.0
2015-Jun-28 12:12N 35°03' E 140°18'710.5
2015-Jun-28 11:33N 34°60' E 140°11'1310.8
2015-Jun-28 10:23N 34°53' E 139°58'910.5
2015-Jun-28 09:34N 34°52' E 139°47'1110.7
2015-Jun-28 08:33N 35°03' E 139°44'1211.7
2015-Jun-28 07:33N 35°14' E 139°46'1110.8
2015-Jun-28 06:33N 35°25' E 139°44'1211.9
2015-Jun-28 05:33N 35°32' E 139°56'7 6.1
2015-Jun-28 04:29N 35°34' E 140°03'0 0.1
2015-Jun-28 03:23N 35°34' E 140°03'0 0.0
2015-Jun-28 02:23N 35°34' E 140°03'0 0.0
2015-Jun-28 01:05N 35°34' E 140°03'0 0.1
2015-Jun-28 00:29N 35°34' E 140°03'0 0.1
2015-Jun-27 23:29N 35°34' E 140°03'0 0.0
2015-Jun-27 22:29N 35°34' E 140°03'0 0.0
2015-Jun-27 21:29N 35°34' E 140°03'0 0.0
2015-Jun-27 20:29N 35°34' E 140°03'0 0.0
2015-Jun-27 19:17N 35°34' E 140°03'0 0.0
2015-Jun-27 18:23N 35°34' E 140°03'0 0.0
2015-Jun-27 17:17N 35°34' E 140°03'0 0.0
2015-Jun-27 16:23N 35°34' E 140°03'0 0.1
2015-Jun-27 15:29N 35°34' E 140°03'0 0.0
2015-Jun-27 14:17N 35°34' E 140°03'0 0.0
2015-Jun-27 13:29N 35°34' E 140°03'0 0.1
2015-Jun-27 12:29N 35°34' E 140°03'0 0.0
2015-Jun-27 11:17N 35°34' E 140°03'0 0.0
2015-Jun-27 10:23N 35°34' E 140°03'0 0.0
2015-Jun-27 09:23N 35°34' E 140°03'0 0.1
2015-Jun-27 08:30N 35°34' E 140°03'2 2.1
2015-Jun-27 07:24N 35°36' E 140°05'0 0.0
2015-Jun-27 06:33N 35°36' E 140°05'0 0.0
2015-Jun-27 04:27N 35°36' E 140°05'0 0.0
2015-Jun-27 03:33N 35°36' E 140°05'0 0.0
2015-Jun-27 02:33N 35°36' E 140°05'0 0.1
2015-Jun-27 01:33N 35°36' E 140°05'0 0.1
2015-Jun-27 00:33N 35°36' E 140°05'0 0.0
2015-Jun-26 23:27N 35°36' E 140°05'0 0.0
2015-Jun-26 22:33N 35°36' E 140°05'0 0.0
2015-Jun-26 21:27N 35°36' E 140°05'0 0.0
2015-Jun-26 20:27N 35°36' E 140°05'0 0.0
2015-Jun-26 19:09N 35°36' E 140°05'0 0.0
2015-Jun-26 18:33N 35°36' E 140°05'0 0.0
2015-Jun-26 17:27N 35°36' E 140°05'0 0.0
2015-Jun-26 16:21N 35°36' E 140°05'0 0.0
2015-Jun-26 14:03N 35°36' E 140°05'0 0.0
2015-Jun-26 13:33N 35°36' E 140°05'0 0.0
2015-Jun-26 12:27N 35°36' E 140°05'0 0.0
2015-Jun-26 11:15N 35°36' E 140°05'0 0.0
2015-Jun-26 10:15N 35°36' E 140°05'0 0.0
2015-Jun-26 09:33N 35°36' E 140°05'0 0.0
2015-Jun-26 08:33N 35°36' E 140°05'0 0.0
2015-Jun-26 07:33N 35°36' E 140°05'0 0.0
2015-Jun-26 06:33N 35°36' E 140°05'0 0.0
2015-Jun-26 05:33N 35°36' E 140°05'0 0.0
2015-Jun-26 04:21N 35°36' E 140°05'0 0.0
2015-Jun-26 02:33N 35°36' E 140°05'0 0.0
2015-Jun-26 01:27N 35°36' E 140°05'0 0.0
2015-Jun-26 00:27N 35°36' E 140°05'0 0.0
2015-Jun-25 23:09N 35°36' E 140°05'0 0.6
2015-Jun-25 22:33N 35°36' E 140°05'  

Dump ship's entire track history